Pagina principale
METAR-TAF:

METAR-TAF

Aeroporti :

Bamako, Mali

Aeroporto Modibo Keïta

latitudine: 12-32N, longitudine: 007-57W, altezza: 380 m

Osservazione

Il bollettino è stato emesso 40 minuti fa, alle 04:30 UTC
Vento 2 kt da nord/nord-est
Temperature 23°C
Umidità 22%
Pressione 1010 hPa
Visibilità: 8000 m

METAR: GABS 180430Z 03002KT 8000 NSC 23/00 Q1010 NOSIG

Ora: 05:10 (05:10 UTC)

Previsione

Il bollettino è stato emesso 6 ore e 10 minuti fa, alle 23:00 UTC
Previsione valida dal 18 alle 00 UTC al 18 alle 24 UTC
Vento 10 kt da nord-est
Visibilità: 8000 m

TAF: GABS 172300Z 1800/1824 04010KT 8000 NSC

Osservazioni e previsioni meteorologiche di più di 4000 aeroporti (messaggi METAR e TAF).

Le stazioni disponibili sono rappresentate dai dischi gialli e rossi sulla carta.

Puntare il mouse per vedere il nome della stazione.

Clicca sopra per visualizzare le osservazioni e previsioni meteorologiche.

Per cambiare la mappa : fare clic sui pulsanti verdi con una croce nera per ingrandire, il pulsante verde con un trattino per diminuire, o sulla freccia verde per le mappe adiacenti.


METAR-TAF: